WMKD

Details ICAO WMKD (KUA)
Name Kuantan Aero
Region Malaysia (Peninsular Malaysia)
Timezone Asia/Kuala_Lumpur (UTC+8.0)
Plans Departing 15
Arriving 13
Stats Elevation 58 ft / 18 m (AMSL)
Location 3.775660° 103.209057°
Runways 1
Magnetic Variation 0.059° E
Sunrise 2017-12-15 23:06:56 UTC / 2017-12-16 07:06:56 Local
Sunset 2017-12-16 11:01:10 UTC / 2017-12-16 19:01:10 Local
Advertisement - Login to hide

Runways

ID Width Length Bearing (true) Bearing (mag) Surface Threshold Offset Overrun Length
18 150 ft / 46 m 9,253 ft / 2,820 m 183.14° 183.08° Asphalt 0 ft / 0 m 1,062 ft / 324 m
36 150 ft / 46 m 9,253 ft / 2,820 m 3.14° 3.08° Asphalt 0 ft / 0 m 867 ft / 264 m

Approach Navaids

Runway Type Ident Frequency Range Bearing (true) Bearing (mag) Slope Elevation
36 Localiser IKN 109.50 MHz 18 nm / 33 km 359.94° 359.89° - 58 ft / 18 m (AMSL)
36 Glidescope IKN 109.50 MHz 10 nm / 19 km 3.14° 3.08° 3.00° 54 ft / 16 m (AMSL)
36 DME IKN 109.50 MHz 18 nm / 33 km - - - 58 ft / 18 m (AMSL)

Map

Weather


0- 5 10 15 20 25 30 35+ Temperature / ° C

Clouds and Precipitation
Forecast for 2017-12-16 06:00 UTC. Updated 7 minutes ago

Ground ~20,000 ft ~40,000 ft Winds

METAR

WMKD 160500Z VRB03KT 9999 SCT019 BKN280 31/25 Q1011 NOSIG

TAF

Not found

Frequencies

Recorded 127.50 MHz ATIS
Tower 118.10 MHz TWR
Ground 120.40 MHz GND
Approach 118.10 MHz APP
Warning: Do not use this data for real-world aviation or navigation. No guarantee of current accuracy is given.